createdAt,value
2022-08-16T00:03:47.723Z,20.57
2022-08-16T00:08:55.044Z,20.52
2022-08-16T00:13:58.913Z,20.46
2022-08-16T00:19:04.391Z,20.44
2022-08-16T00:24:11.521Z,20.43
2022-08-16T00:29:17.717Z,20.40
2022-08-16T00:34:43.359Z,20.30
2022-08-16T00:39:57.502Z,20.31
2022-08-16T00:45:09.463Z,20.31
2022-08-16T00:50:17.908Z,20.31
2022-08-16T00:55:25.958Z,20.33
2022-08-16T01:00:42.174Z,20.35
2022-08-16T01:05:49.955Z,20.30
2022-08-16T01:10:59.924Z,20.26
2022-08-16T01:16:10.466Z,20.23
2022-08-16T01:21:33.749Z,20.17
2022-08-16T01:26:45.385Z,20.14
2022-08-16T01:31:49.626Z,20.10
2022-08-16T01:37:02.114Z,20.05
2022-08-16T01:42:12.134Z,20.02
2022-08-16T01:47:17.494Z,20.00
2022-08-16T01:52:29.873Z,19.97
2022-08-16T01:57:38.088Z,19.89
2022-08-16T02:02:42.409Z,19.80
2022-08-16T02:07:48.199Z,19.74
2022-08-16T02:13:00.765Z,19.73
2022-08-16T02:18:12.497Z,19.68
2022-08-16T02:23:18.204Z,19.67
2022-08-16T02:28:26.199Z,19.64
2022-08-16T02:33:44.078Z,19.62
2022-08-16T02:38:54.584Z,19.49
2022-08-16T02:44:00.086Z,19.50
2022-08-16T02:49:07.274Z,19.48
2022-08-16T02:54:13.758Z,19.43
2022-08-16T02:59:23.389Z,19.38
2022-08-16T03:04:49.558Z,19.31
2022-08-16T03:09:51.079Z,19.32
2022-08-16T03:14:58.224Z,19.31
2022-08-16T03:20:03.160Z,19.29
2022-08-16T03:25:11.925Z,19.27
2022-08-16T03:30:21.445Z,19.28
2022-08-16T03:35:33.418Z,19.29
2022-08-16T03:40:38.966Z,19.26
2022-08-16T03:45:46.129Z,19.25
2022-08-16T03:51:00.076Z,19.23
2022-08-16T03:56:19.932Z,19.13
2022-08-16T04:01:29.429Z,19.07
2022-08-16T04:06:34.361Z,19.01
2022-08-16T04:11:38.284Z,18.98
2022-08-16T04:16:43.633Z,18.88
2022-08-16T04:21:52.598Z,18.95
2022-08-16T04:27:01.176Z,18.89
2022-08-16T04:32:09.233Z,18.92
2022-08-16T04:37:16.228Z,18.95
2022-08-16T04:42:26.226Z,18.96
2022-08-16T04:47:36.111Z,18.93
2022-08-16T04:52:40.600Z,18.87
2022-08-16T04:57:45.864Z,18.89
2022-08-16T05:03:02.624Z,18.85
2022-08-16T05:08:29.961Z,18.76
2022-08-16T05:13:41.604Z,18.75
2022-08-16T05:18:49.359Z,18.45
2022-08-16T05:23:58.625Z,18.74
2022-08-16T05:29:06.864Z,18.77
2022-08-16T05:34:21.326Z,18.83
2022-08-16T05:39:28.202Z,18.75
2022-08-16T05:44:32.160Z,18.78
2022-08-16T05:49:40.266Z,18.74
2022-08-16T05:54:47.556Z,18.85
2022-08-16T05:59:59.508Z,18.76
2022-08-16T06:05:07.533Z,18.68
2022-08-16T06:10:14.940Z,18.82
2022-08-16T06:15:36.228Z,18.86
2022-08-16T06:20:55.489Z,19.01
2022-08-16T06:26:00.365Z,19.10
2022-08-16T06:31:05.834Z,19.15
2022-08-16T06:36:13.884Z,19.19
2022-08-16T06:41:19.662Z,19.27
2022-08-16T06:46:32.050Z,19.47
2022-08-16T06:51:46.639Z,19.63
2022-08-16T06:56:54.127Z,19.70
2022-08-16T07:01:59.779Z,19.81
2022-08-16T07:07:05.930Z,19.91
2022-08-16T07:12:10.528Z,19.79
2022-08-16T07:17:15.657Z,19.96
2022-08-16T07:22:38.719Z,20.13
2022-08-16T07:27:45.627Z,20.25
2022-08-16T07:32:52.097Z,20.37
2022-08-16T07:37:58.663Z,20.43
2022-08-16T07:43:03.566Z,20.57
2022-08-16T07:48:11.565Z,20.57
2022-08-16T07:53:19.579Z,20.82
2022-08-16T07:58:35.206Z,20.97
2022-08-16T08:03:48.307Z,21.10
2022-08-16T08:08:57.041Z,21.37
2022-08-16T08:14:03.652Z,21.54
2022-08-16T08:19:12.916Z,21.74
2022-08-16T08:24:18.186Z,22.11
2022-08-16T08:29:36.546Z,22.30
2022-08-16T08:34:42.142Z,22.56
2022-08-16T08:39:54.626Z,22.58
2022-08-16T08:44:59.586Z,22.82
2022-08-16T08:50:03.762Z,22.89
2022-08-16T08:55:13.481Z,22.98
2022-08-16T09:00:21.197Z,23.24
2022-08-16T09:05:35.791Z,23.50
2022-08-16T09:10:42.823Z,23.87
2022-08-16T09:15:49.435Z,24.11
2022-08-16T09:20:58.748Z,24.38
2022-08-16T09:26:43.965Z,24.57
2022-08-16T09:31:29.609Z,24.67
2022-08-16T09:36:34.326Z,24.78
2022-08-16T09:41:39.527Z,25.11
2022-08-16T09:46:48.261Z,25.33
2022-08-16T09:51:54.888Z,25.43
2022-08-16T09:57:01.169Z,25.87
2022-08-16T10:02:26.889Z,26.13
2022-08-16T10:07:44.522Z,26.20
2022-08-16T10:13:08.311Z,26.45
2022-08-16T10:18:56.599Z,26.62
2022-08-16T10:23:37.563Z,26.99
2022-08-16T10:28:43.358Z,27.37
2022-08-16T10:33:47.429Z,27.84
2022-08-16T10:38:52.198Z,27.92
2022-08-16T10:43:58.269Z,28.27
2022-08-16T10:49:05.087Z,29.10
2022-08-16T10:54:28.828Z,29.94
2022-08-16T10:59:44.068Z,30.63
2022-08-16T11:05:07.043Z,31.38
2022-08-16T11:15:47.941Z,32.50
2022-08-16T11:20:59.626Z,32.46
2022-08-16T11:26:16.297Z,32.71
2022-08-16T11:31:28.384Z,32.81
2022-08-16T11:36:37.146Z,32.45
2022-08-16T11:41:43.612Z,31.93
2022-08-16T11:46:48.898Z,31.50
2022-08-16T11:51:52.890Z,30.74
2022-08-16T11:56:57.149Z,30.40
2022-08-16T12:02:31.606Z,30.00
2022-08-16T12:07:26.740Z,29.75
2022-08-16T12:12:32.711Z,29.74
2022-08-16T12:17:40.978Z,29.90
2022-08-16T12:22:45.257Z,29.79
2022-08-16T12:27:51.081Z,29.61
2022-08-16T12:32:57.901Z,29.34
2022-08-16T12:38:08.613Z,29.03
2022-08-16T12:43:26.856Z,29.00
2022-08-16T12:48:55.029Z,29.19
2022-08-16T12:54:01.371Z,29.33
2022-08-16T12:59:09.596Z,29.57
2022-08-16T13:04:20.537Z,29.81
2022-08-16T13:09:26.126Z,30.16
2022-08-16T13:14:34.147Z,30.52
2022-08-16T13:25:06.534Z,31.04
2022-08-16T13:30:35.449Z,31.22
2022-08-16T13:35:42.793Z,31.32
2022-08-16T13:40:49.688Z,31.48
2022-08-16T13:45:55.686Z,31.36
2022-08-16T13:51:04.107Z,31.05
2022-08-16T13:56:08.146Z,30.88
2022-08-16T14:01:14.380Z,30.90
2022-08-16T14:06:22.091Z,30.99
2022-08-16T14:11:26.420Z,31.21
2022-08-16T14:16:34.056Z,31.24
2022-08-16T14:21:43.008Z,31.21
2022-08-16T14:26:59.630Z,31.14
2022-08-16T14:32:09.238Z,30.96
2022-08-16T14:37:14.681Z,30.74
2022-08-16T14:42:21.221Z,30.75
2022-08-16T14:47:25.234Z,30.90
2022-08-16T14:52:56.382Z,30.93
2022-08-16T14:58:00.842Z,30.91
2022-08-16T15:03:09.627Z,30.72
2022-08-16T15:08:17.062Z,30.50
2022-08-16T15:13:22.452Z,30.35
2022-08-16T15:18:27.894Z,30.08
2022-08-16T15:23:34.333Z,29.96
2022-08-16T15:28:38.346Z,29.84
2022-08-16T15:33:48.631Z,29.67
2022-08-16T15:39:05.762Z,29.55
2022-08-16T15:44:25.640Z,29.51
2022-08-16T15:49:34.746Z,29.40
2022-08-16T15:54:52.458Z,29.31
2022-08-16T16:00:04.918Z,29.39
2022-08-16T16:05:19.966Z,29.37
2022-08-16T16:10:29.487Z,29.50
2022-08-16T16:15:37.522Z,29.49
2022-08-16T16:20:47.584Z,29.44
2022-08-16T16:25:54.736Z,29.36
2022-08-16T16:30:58.834Z,29.18
2022-08-16T16:36:03.957Z,29.10
2022-08-16T16:41:13.254Z,29.01
2022-08-16T16:46:40.411Z,28.90
2022-08-16T16:51:44.858Z,28.77
2022-08-16T16:56:52.314Z,28.60
2022-08-16T17:02:38.224Z,28.40
2022-08-16T17:07:24.423Z,28.28
2022-08-16T17:12:47.308Z,28.07
2022-08-16T17:19:14.677Z,27.82
2022-08-16T17:23:16.506Z,27.81
2022-08-16T17:28:58.421Z,27.77
2022-08-16T17:33:54.365Z,27.48
2022-08-16T17:39:00.067Z,27.60
2022-08-16T17:44:05.575Z,27.51
2022-08-16T17:49:09.291Z,27.46
2022-08-16T17:54:18.795Z,27.40
2022-08-16T17:59:40.852Z,27.35
2022-08-16T18:04:49.374Z,27.18
2022-08-16T18:09:54.728Z,27.11
2022-08-16T18:15:00.469Z,27.01
2022-08-16T18:20:05.029Z,26.98
2022-08-16T18:25:09.561Z,26.81
2022-08-16T18:30:17.566Z,26.78
2022-08-16T18:35:22.321Z,26.74
2022-08-16T18:40:26.598Z,26.64
2022-08-16T18:45:35.165Z,26.55
2022-08-16T18:50:59.474Z,26.46
2022-08-16T18:56:05.435Z,26.39
2022-08-16T19:01:10.540Z,26.28
2022-08-16T19:06:16.160Z,26.14
2022-08-16T19:11:23.402Z,25.94
2022-08-16T19:16:28.532Z,25.81
2022-08-16T19:21:32.419Z,25.67
2022-08-16T19:26:36.208Z,25.66
2022-08-16T19:31:41.648Z,25.53
2022-08-16T19:36:45.372Z,25.49
2022-08-16T19:41:53.489Z,25.37
2022-08-16T19:46:59.259Z,25.25
2022-08-16T19:52:11.706Z,25.17
2022-08-16T19:57:17.670Z,25.09
2022-08-16T20:02:35.625Z,24.94
2022-08-16T20:07:40.201Z,24.94
2022-08-16T20:13:02.524Z,24.90
2022-08-16T20:18:12.686Z,24.82
2022-08-16T20:23:29.002Z,24.75
2022-08-16T20:28:51.651Z,24.57
2022-08-16T20:33:57.864Z,24.53
2022-08-16T20:39:04.145Z,24.49
2022-08-16T20:44:08.171Z,24.39
2022-08-16T20:49:15.032Z,24.31
2022-08-16T20:54:18.845Z,24.22
2022-08-16T20:59:22.672Z,24.12
2022-08-16T21:04:29.939Z,24.02
2022-08-16T21:09:35.896Z,23.94
2022-08-16T21:14:39.836Z,23.84
2022-08-16T21:19:46.057Z,23.81
2022-08-16T21:24:54.121Z,23.77
2022-08-16T21:29:58.097Z,23.74
2022-08-16T21:35:08.062Z,23.69
2022-08-16T21:40:13.475Z,23.62
2022-08-16T21:45:17.439Z,23.57
2022-08-16T21:50:22.604Z,23.54
2022-08-16T21:55:26.430Z,23.45
2022-08-16T22:00:30.728Z,23.37
2022-08-16T22:05:36.017Z,23.33
2022-08-16T22:11:07.669Z,23.32
2022-08-16T22:16:04.811Z,23.27
2022-08-16T22:21:09.891Z,23.19
2022-08-16T22:26:14.718Z,23.14
2022-08-16T22:31:19.029Z,23.08
2022-08-16T22:36:28.929Z,23.02
2022-08-16T22:41:34.555Z,22.97
2022-08-16T22:46:38.476Z,22.92
2022-08-16T22:51:43.523Z,22.91
2022-08-16T22:56:47.219Z,22.91
2022-08-16T23:01:51.015Z,22.88
2022-08-16T23:06:56.116Z,22.84
2022-08-16T23:12:03.774Z,22.75
2022-08-16T23:17:07.816Z,22.68
2022-08-16T23:22:12.946Z,22.60
2022-08-16T23:27:17.081Z,22.61
2022-08-16T23:32:20.964Z,22.53
2022-08-16T23:37:26.497Z,22.49
2022-08-16T23:42:52.418Z,22.49
2022-08-16T23:47:54.882Z,22.48
2022-08-16T23:53:04.632Z,22.44
2022-08-16T23:58:09.247Z,22.47
